createdAt,value
2023-03-26T00:01:19.220Z,5.40
2023-03-26T00:03:47.076Z,5.50
2023-03-26T00:06:16.563Z,5.40
2023-03-26T00:08:45.720Z,5.40
2023-03-26T00:11:15.861Z,5.40
2023-03-26T00:13:43.927Z,5.50
2023-03-26T00:16:16.343Z,5.50
2023-03-26T00:18:43.924Z,5.60
2023-03-26T00:21:16.510Z,5.60
2023-03-26T00:23:44.442Z,5.60
2023-03-26T00:26:11.809Z,5.60
2023-03-26T00:28:40.508Z,5.50
2023-03-26T00:31:13.420Z,5.50
2023-03-26T00:33:41.561Z,5.50
2023-03-26T00:36:14.934Z,5.40
2023-03-26T00:38:43.030Z,5.50
2023-03-26T00:41:17.777Z,5.50
2023-03-26T00:43:49.245Z,5.50
2023-03-26T00:46:17.919Z,5.50
2023-03-26T00:48:46.271Z,5.50
2023-03-26T00:51:15.891Z,5.50
2023-03-26T00:53:45.193Z,5.60
2023-03-26T00:56:12.841Z,5.60
2023-03-26T00:58:39.824Z,5.70
2023-03-26T01:01:13.571Z,5.70
2023-03-26T01:03:45.712Z,5.70
2023-03-26T01:06:27.668Z,5.80
2023-03-26T01:09:00.100Z,5.80
2023-03-26T01:11:30.180Z,5.90
2023-03-26T01:14:19.018Z,5.90
2023-03-26T01:16:55.936Z,5.90
2023-03-26T01:19:29.623Z,5.90
2023-03-26T01:21:58.044Z,5.90
2023-03-26T01:24:24.802Z,5.90
2023-03-26T01:27:19.314Z,5.90
2023-03-26T01:29:59.415Z,5.80
2023-03-26T01:32:26.117Z,5.70
2023-03-26T01:35:08.073Z,5.70
2023-03-26T01:37:37.856Z,5.60
2023-03-26T01:40:38.807Z,5.60
2023-03-26T01:43:11.173Z,5.50
2023-03-26T01:45:41.963Z,5.40
2023-03-26T01:48:08.896Z,5.40
2023-03-26T01:50:35.662Z,5.40
2023-03-26T01:53:02.409Z,5.40
2023-03-26T01:55:41.657Z,5.40
2023-03-26T01:58:30.918Z,5.50
2023-03-26T02:01:04.150Z,5.50
2023-03-26T02:03:33.619Z,5.50
2023-03-26T02:06:30.626Z,5.40
2023-03-26T02:09:04.427Z,5.40
2023-03-26T02:11:35.584Z,5.30
2023-03-26T02:14:05.262Z,5.30
2023-03-26T02:16:32.425Z,5.30
2023-03-26T02:18:59.264Z,5.30
2023-03-26T02:21:27.868Z,5.30
2023-03-26T02:24:03.776Z,5.40
2023-03-26T02:26:35.942Z,5.40
2023-03-26T02:29:11.219Z,5.50
2023-03-26T02:31:40.689Z,5.50
2023-03-26T02:34:07.489Z,5.50
2023-03-26T02:36:37.265Z,5.50
2023-03-26T02:39:05.015Z,5.60
2023-03-26T02:41:35.470Z,5.60
2023-03-26T02:44:06.827Z,5.70
2023-03-26T02:46:53.745Z,5.70
2023-03-26T02:49:39.083Z,5.80
2023-03-26T02:52:06.742Z,5.80
2023-03-26T02:54:35.626Z,5.80
2023-03-26T02:57:15.614Z,5.80
2023-03-26T02:59:42.789Z,5.80
2023-03-26T03:02:41.630Z,5.80
2023-03-26T03:05:20.490Z,5.70
2023-03-26T03:07:58.149Z,5.70
2023-03-26T03:10:28.061Z,5.60
2023-03-26T03:13:05.789Z,5.60
2023-03-26T03:15:32.563Z,5.60
2023-03-26T03:17:59.269Z,5.70
2023-03-26T03:20:30.341Z,5.70
2023-03-26T03:22:57.058Z,5.70
2023-03-26T03:25:25.966Z,5.70
2023-03-26T03:27:53.905Z,5.70
2023-03-26T03:30:21.045Z,5.70
2023-03-26T03:33:19.149Z,5.60
2023-03-26T03:35:48.032Z,5.40
2023-03-26T03:38:15.429Z,5.40
2023-03-26T03:40:47.861Z,5.40
2023-03-26T03:43:15.277Z,5.50
2023-03-26T03:45:54.841Z,5.50
2023-03-26T03:48:33.494Z,5.50
2023-03-26T03:51:00.253Z,5.50
2023-03-26T03:53:31.386Z,5.50
2023-03-26T03:56:01.943Z,5.60
2023-03-26T03:58:48.608Z,5.60
2023-03-26T04:01:24.584Z,5.60
2023-03-26T04:03:59.606Z,5.70
2023-03-26T04:06:38.859Z,5.70
2023-03-26T04:09:06.799Z,5.70
2023-03-26T04:11:33.558Z,5.70
2023-03-26T04:14:11.570Z,5.70
2023-03-26T04:16:59.234Z,5.70
2023-03-26T04:19:27.468Z,5.60
2023-03-26T04:21:54.500Z,5.60
2023-03-26T04:24:22.404Z,5.60
2023-03-26T04:27:14.888Z,5.60
2023-03-26T04:29:45.715Z,5.50
2023-03-26T04:32:29.804Z,5.50
2023-03-26T04:35:03.275Z,5.50
2023-03-26T04:37:39.801Z,5.50
2023-03-26T04:40:21.996Z,5.50
2023-03-26T04:43:02.236Z,5.60
2023-03-26T04:45:48.877Z,5.50
2023-03-26T04:48:17.799Z,5.50
2023-03-26T04:50:45.902Z,5.50
2023-03-26T04:53:19.822Z,5.50
2023-03-26T04:56:24.171Z,5.40
2023-03-26T04:59:26.405Z,5.40
2023-03-26T05:01:56.803Z,5.50
2023-03-26T05:04:26.580Z,5.50
2023-03-26T05:06:54.001Z,5.60
2023-03-26T05:09:27.430Z,5.50
2023-03-26T05:12:17.198Z,5.60
2023-03-26T05:15:06.161Z,5.60
2023-03-26T05:17:44.446Z,5.60
2023-03-26T05:20:26.245Z,5.70
2023-03-26T05:22:53.278Z,5.70
2023-03-26T05:25:25.565Z,5.70
2023-03-26T05:27:52.780Z,5.70
2023-03-26T05:30:21.863Z,5.70
2023-03-26T05:32:54.015Z,5.70
2023-03-26T05:35:25.654Z,5.60
2023-03-26T05:37:52.477Z,5.70
2023-03-26T05:40:22.882Z,5.60
2023-03-26T05:42:56.354Z,5.70
2023-03-26T05:45:48.135Z,5.70
2023-03-26T05:48:26.161Z,5.70
2023-03-26T05:50:54.642Z,5.70
2023-03-26T05:53:23.534Z,5.80
2023-03-26T05:56:09.128Z,5.80
2023-03-26T05:58:56.799Z,5.90
2023-03-26T06:01:44.735Z,5.90
2023-03-26T06:04:28.675Z,5.90
2023-03-26T06:07:16.806Z,6.00
2023-03-26T06:09:47.728Z,6.00
2023-03-26T06:12:14.938Z,6.10
2023-03-26T06:14:45.739Z,6.10
2023-03-26T06:17:32.695Z,6.20
2023-03-26T06:20:10.131Z,6.20
2023-03-26T06:22:40.219Z,6.30
2023-03-26T06:25:18.797Z,6.30
2023-03-26T06:27:54.488Z,6.40
2023-03-26T06:30:40.258Z,6.40
2023-03-26T06:33:14.976Z,6.40
2023-03-26T06:35:48.855Z,6.40
2023-03-26T06:38:16.820Z,6.50
2023-03-26T06:40:44.132Z,6.60
2023-03-26T06:43:37.752Z,6.70
2023-03-26T06:50:33.880Z,6.70
2023-03-26T06:53:13.287Z,6.50
2023-03-26T06:56:15.381Z,6.60
2023-03-26T06:58:54.511Z,6.60
2023-03-26T07:01:40.082Z,6.60
2023-03-26T07:04:25.368Z,6.70
2023-03-26T07:07:10.712Z,6.80
2023-03-26T07:09:56.058Z,6.80
2023-03-26T07:12:42.358Z,6.90
2023-03-26T07:15:28.900Z,7.00
2023-03-26T07:18:10.814Z,7.10
2023-03-26T07:20:39.420Z,7.20
2023-03-26T07:23:07.272Z,7.30
2023-03-26T07:25:44.086Z,7.40
2023-03-26T07:28:41.836Z,7.50
2023-03-26T07:31:27.244Z,7.60
2023-03-26T07:34:44.706Z,7.80
2023-03-26T07:37:45.171Z,8.00
2023-03-26T07:40:18.644Z,8.00
2023-03-26T07:43:58.361Z,8.00
2023-03-26T07:46:42.693Z,8.20
2023-03-26T07:49:23.364Z,8.40
2023-03-26T07:52:16.618Z,8.50
2023-03-26T07:54:58.026Z,8.70
2023-03-26T07:57:56.833Z,8.60
2023-03-26T08:00:56.976Z,8.60
2023-03-26T08:03:43.892Z,8.80
2023-03-26T08:06:37.242Z,8.80
2023-03-26T08:09:43.075Z,8.60
2023-03-26T08:12:48.183Z,8.80
2023-03-26T08:15:37.910Z,9.00
2023-03-26T08:18:27.079Z,9.10
2023-03-26T08:21:11.076Z,9.30
2023-03-26T08:24:13.298Z,9.50
2023-03-26T08:26:57.489Z,9.40
2023-03-26T08:29:45.036Z,9.50
2023-03-26T08:32:17.341Z,9.60
2023-03-26T08:34:44.590Z,9.70
2023-03-26T08:37:13.016Z,9.80
2023-03-26T08:39:41.728Z,9.70
2023-03-26T08:42:21.186Z,9.50
2023-03-26T08:45:14.115Z,9.60
2023-03-26T08:48:08.413Z,9.70
2023-03-26T08:50:56.395Z,9.90
2023-03-26T08:53:54.649Z,10.00
2023-03-26T08:56:27.560Z,10.40
2023-03-26T08:59:15.828Z,10.90
2023-03-26T09:02:10.589Z,11.20
2023-03-26T09:05:11.805Z,11.40
2023-03-26T09:08:33.866Z,11.50
2023-03-26T09:11:37.990Z,11.60
2023-03-26T09:14:27.898Z,11.30
2023-03-26T09:17:30.284Z,11.20
2023-03-26T09:20:52.252Z,11.00
2023-03-26T09:23:40.376Z,11.00
2023-03-26T09:26:25.290Z,10.90
2023-03-26T09:29:20.932Z,10.80
2023-03-26T09:31:57.783Z,11.00
2023-03-26T09:34:36.833Z,11.20
2023-03-26T09:37:18.931Z,11.20
2023-03-26T09:39:53.667Z,11.10
2023-03-26T09:42:58.274Z,10.90
2023-03-26T09:45:57.636Z,10.80
2023-03-26T09:48:39.737Z,10.70
2023-03-26T09:51:47.562Z,10.60
2023-03-26T09:54:14.296Z,10.60
2023-03-26T09:56:57.518Z,10.70
2023-03-26T09:59:36.861Z,10.50
2023-03-26T10:02:46.514Z,10.50
2023-03-26T10:05:17.379Z,10.50
2023-03-26T10:08:02.114Z,10.50
2023-03-26T10:10:34.531Z,10.50
2023-03-26T10:13:24.075Z,10.50
2023-03-26T10:16:12.754Z,10.50
2023-03-26T10:18:51.416Z,10.40
2023-03-26T10:21:47.656Z,10.30
2023-03-26T10:24:53.116Z,9.90
2023-03-26T10:27:46.984Z,10.10
2023-03-26T10:30:32.728Z,10.20
2023-03-26T10:33:24.595Z,10.20
2023-03-26T10:36:19.570Z,10.30
2023-03-26T10:38:54.348Z,10.50
2023-03-26T10:41:30.264Z,10.50
2023-03-26T10:44:31.174Z,10.50
2023-03-26T10:47:12.960Z,10.60
2023-03-26T10:49:59.970Z,10.60
2023-03-26T10:52:37.687Z,10.60
2023-03-26T10:55:16.120Z,10.70
2023-03-26T10:57:50.214Z,10.80
2023-03-26T11:00:25.231Z,10.70
2023-03-26T11:03:24.346Z,10.70
2023-03-26T11:06:13.062Z,10.70
2023-03-26T11:08:53.920Z,10.70
2023-03-26T11:11:29.841Z,10.90
2023-03-26T11:14:02.650Z,11.10
2023-03-26T11:16:54.876Z,11.10
2023-03-26T11:19:44.877Z,11.30
2023-03-26T11:22:34.568Z,11.50
2023-03-26T11:25:26.437Z,11.70
2023-03-26T11:28:05.738Z,11.80
2023-03-26T11:30:47.375Z,11.90
2023-03-26T11:33:27.394Z,11.90
2023-03-26T11:36:06.728Z,11.80
2023-03-26T11:38:46.740Z,11.80
2023-03-26T11:41:30.882Z,11.70
2023-03-26T11:44:32.272Z,11.60
2023-03-26T11:47:04.625Z,11.60
2023-03-26T11:49:32.669Z,11.60
2023-03-26T11:52:00.910Z,11.70
2023-03-26T11:54:27.897Z,11.70
2023-03-26T11:57:12.794Z,11.80
2023-03-26T11:59:57.137Z,11.60
2023-03-26T12:02:29.298Z,11.90
2023-03-26T12:05:27.289Z,12.20
2023-03-26T12:07:59.872Z,12.60
2023-03-26T12:10:33.233Z,12.80
2023-03-26T12:13:06.444Z,12.90
2023-03-26T12:15:33.313Z,12.80
2023-03-26T12:18:26.073Z,12.80
2023-03-26T12:21:25.012Z,13.00
2023-03-26T12:24:04.801Z,13.10
2023-03-26T12:26:41.179Z,13.20
2023-03-26T12:29:13.696Z,13.30
2023-03-26T12:32:09.208Z,13.40
2023-03-26T12:34:38.180Z,13.40
2023-03-26T12:37:07.196Z,13.00
2023-03-26T12:40:08.111Z,12.70
2023-03-26T12:44:53.053Z,12.60
2023-03-26T12:45:31.816Z,12.70
2023-03-26T12:48:03.846Z,12.50
2023-03-26T12:51:08.756Z,12.50
2023-03-26T12:53:41.703Z,12.30
2023-03-26T12:56:23.419Z,12.10
2023-03-26T12:59:25.597Z,12.00
2023-03-26T13:02:29.153Z,12.00
2023-03-26T13:05:07.076Z,12.30
2023-03-26T13:07:47.094Z,12.40
2023-03-26T13:14:50.904Z,12.20
2023-03-26T13:17:35.855Z,12.00
2023-03-26T13:20:13.203Z,11.80
2023-03-26T13:23:03.914Z,11.70
2023-03-26T13:25:54.542Z,11.50
2023-03-26T13:28:27.759Z,11.30
2023-03-26T13:31:00.330Z,11.20
2023-03-26T13:33:38.484Z,11.10
2023-03-26T13:36:22.575Z,11.00
2023-03-26T13:39:04.814Z,10.90
2023-03-26T13:42:08.271Z,10.80
2023-03-26T13:44:47.386Z,10.70
2023-03-26T13:47:19.236Z,10.60
2023-03-26T13:49:54.438Z,10.70
2023-03-26T13:52:35.262Z,10.70
2023-03-26T13:55:19.919Z,10.80
2023-03-26T13:58:05.034Z,10.70
2023-03-26T14:00:47.700Z,10.70
2023-03-26T14:03:20.449Z,10.60
2023-03-26T14:05:52.627Z,10.60
2023-03-26T14:08:25.386Z,10.60
2023-03-26T14:10:58.893Z,10.50
2023-03-26T14:13:47.348Z,10.40
2023-03-26T14:16:38.280Z,10.40
2023-03-26T14:19:41.685Z,10.30
2023-03-26T14:22:18.219Z,10.30
2023-03-26T14:25:08.373Z,10.30
2023-03-26T14:27:44.507Z,10.30
2023-03-26T14:30:17.718Z,10.30
2023-03-26T14:33:12.630Z,10.20
2023-03-26T14:35:56.539Z,10.20
2023-03-26T14:38:53.026Z,10.20
2023-03-26T14:41:39.914Z,10.10
2023-03-26T14:44:25.181Z,10.10
2023-03-26T14:47:10.041Z,10.10
2023-03-26T14:49:51.797Z,10.10
2023-03-26T14:52:27.481Z,10.10
2023-03-26T14:54:57.986Z,10.20
2023-03-26T14:57:58.678Z,10.20
2023-03-26T15:00:31.270Z,10.20
2023-03-26T15:03:38.572Z,10.20
2023-03-26T15:06:45.984Z,10.10
2023-03-26T15:09:31.214Z,10.00
2023-03-26T15:12:12.193Z,10.10
2023-03-26T15:15:16.777Z,10.20
2023-03-26T15:18:00.317Z,10.20
2023-03-26T15:20:50.085Z,10.10
2023-03-26T15:23:43.421Z,10.10
2023-03-26T15:26:41.658Z,10.10
2023-03-26T15:29:35.599Z,10.00
2023-03-26T15:32:13.722Z,10.00
2023-03-26T15:34:54.627Z,9.80
2023-03-26T15:37:40.417Z,9.80
2023-03-26T15:40:40.393Z,9.70
2023-03-26T15:43:12.506Z,9.50
2023-03-26T15:45:48.052Z,9.50
2023-03-26T15:48:30.081Z,9.40
2023-03-26T15:51:22.056Z,9.30
2023-03-26T15:54:14.155Z,9.20
2023-03-26T15:56:52.927Z,9.20
2023-03-26T15:59:40.674Z,9.20
2023-03-26T16:02:16.672Z,9.10
2023-03-26T16:04:55.737Z,9.10
2023-03-26T16:07:58.638Z,9.00
2023-03-26T16:10:33.749Z,9.00
2023-03-26T16:13:19.183Z,8.90
2023-03-26T16:16:04.219Z,8.90
2023-03-26T16:18:50.980Z,8.90
2023-03-26T16:21:36.433Z,8.80
2023-03-26T16:24:03.160Z,8.80
2023-03-26T16:26:47.830Z,8.70
2023-03-26T16:29:14.586Z,8.70
2023-03-26T16:32:10.518Z,8.70
2023-03-26T16:34:38.947Z,8.70
2023-03-26T16:37:26.569Z,8.60
2023-03-26T16:39:54.078Z,8.60
2023-03-26T16:42:26.473Z,8.50
2023-03-26T16:45:19.671Z,8.50
2023-03-26T16:47:59.102Z,8.50
2023-03-26T16:50:54.717Z,8.40
2023-03-26T16:54:02.826Z,8.40
2023-03-26T16:57:03.004Z,8.40
2023-03-26T16:59:44.669Z,8.40
2023-03-26T17:02:24.720Z,8.30
2023-03-26T17:04:58.916Z,8.30
2023-03-26T17:08:06.988Z,8.20
2023-03-26T17:10:40.686Z,8.20
2023-03-26T17:13:15.846Z,8.50
2023-03-26T17:15:55.902Z,8.20
2023-03-26T17:18:33.669Z,8.20
2023-03-26T17:21:45.833Z,8.10
2023-03-26T17:24:34.681Z,8.10
2023-03-26T17:27:28.142Z,8.10
2023-03-26T17:30:30.747Z,8.10
2023-03-26T17:32:59.805Z,8.10
2023-03-26T17:35:47.328Z,8.10
2023-03-26T17:38:16.773Z,8.20
2023-03-26T17:40:58.741Z,8.10
2023-03-26T17:43:38.102Z,8.10
2023-03-26T17:46:10.508Z,8.00
2023-03-26T17:48:40.729Z,8.00
2023-03-26T17:51:40.268Z,8.00
2023-03-26T17:54:14.773Z,7.90
2023-03-26T17:56:42.030Z,7.90
2023-03-26T17:59:14.898Z,7.90
2023-03-26T18:01:44.732Z,7.90
2023-03-26T18:04:24.540Z,7.90
2023-03-26T18:07:16.828Z,7.90
2023-03-26T18:10:22.331Z,7.90
2023-03-26T18:13:15.644Z,7.90
2023-03-26T18:16:01.144Z,8.00
2023-03-26T18:19:01.542Z,7.90
2023-03-26T18:21:34.883Z,7.90
2023-03-26T18:24:02.893Z,7.90
2023-03-26T18:26:39.625Z,7.90
2023-03-26T18:29:26.289Z,7.90
2023-03-26T18:31:57.576Z,7.80
2023-03-26T18:34:26.098Z,7.80
2023-03-26T18:37:14.793Z,7.90
2023-03-26T18:39:55.554Z,7.90
2023-03-26T18:42:24.970Z,7.80
2023-03-26T18:44:53.566Z,7.70
2023-03-26T18:47:29.198Z,7.60
2023-03-26T18:49:57.907Z,7.40
2023-03-26T18:52:28.578Z,7.40
2023-03-26T18:54:56.655Z,7.30
2023-03-26T18:57:29.173Z,7.30
2023-03-26T19:00:09.948Z,7.30
2023-03-26T19:02:38.271Z,7.20
2023-03-26T19:05:05.947Z,7.20
2023-03-26T19:07:32.973Z,7.00
2023-03-26T19:10:37.879Z,6.80
2023-03-26T19:13:31.327Z,6.70
2023-03-26T19:15:59.108Z,6.60
2023-03-26T19:18:27.768Z,6.50
2023-03-26T19:20:58.179Z,6.50
2023-03-26T19:23:32.781Z,6.50
2023-03-26T19:26:02.471Z,6.40
2023-03-26T19:28:35.169Z,6.40
2023-03-26T19:31:09.538Z,6.40
2023-03-26T19:33:40.524Z,6.30
2023-03-26T19:36:13.648Z,6.40
2023-03-26T19:38:44.651Z,6.30
2023-03-26T19:41:44.032Z,6.30
2023-03-26T19:44:19.304Z,6.30
2023-03-26T19:46:53.656Z,6.30
2023-03-26T19:49:41.239Z,6.30
2023-03-26T19:52:28.106Z,6.30
2023-03-26T19:57:43.193Z,6.10
2023-03-26T20:00:14.976Z,6.20
2023-03-26T20:02:42.692Z,6.20
2023-03-26T20:05:22.866Z,6.10
2023-03-26T20:07:50.226Z,6.00
2023-03-26T20:10:16.956Z,6.00
2023-03-26T20:12:43.641Z,6.00
2023-03-26T20:15:21.326Z,6.10
2023-03-26T20:17:52.306Z,6.10
2023-03-26T20:20:19.366Z,6.10
2023-03-26T20:22:47.029Z,6.10
2023-03-26T20:27:52.973Z,6.20
2023-03-26T20:30:36.415Z,6.20
2023-03-26T20:33:11.792Z,6.20
2023-03-26T20:35:40.412Z,6.10
2023-03-26T20:38:09.355Z,5.90
2023-03-26T20:40:36.344Z,5.80
2023-03-26T20:43:03.024Z,5.90
2023-03-26T20:45:29.767Z,5.90
2023-03-26T20:47:57.145Z,5.90
2023-03-26T20:50:26.151Z,6.00
2023-03-26T20:52:53.333Z,6.00
2023-03-26T20:55:21.343Z,6.00
2023-03-26T20:57:48.794Z,6.00
2023-03-26T21:00:22.612Z,6.00
2023-03-26T21:02:53.628Z,6.10
2023-03-26T21:05:25.743Z,6.10
2023-03-26T21:07:57.391Z,6.20
2023-03-26T21:10:26.044Z,6.20
2023-03-26T21:13:04.159Z,6.20
2023-03-26T21:15:31.226Z,6.10
2023-03-26T21:17:58.465Z,6.10
2023-03-26T21:20:28.051Z,6.10
2023-03-26T21:23:19.578Z,6.80
2023-03-26T21:26:15.994Z,6.00
2023-03-26T21:28:46.848Z,6.00
2023-03-26T21:31:36.475Z,6.10
2023-03-26T21:34:05.307Z,6.00
2023-03-26T21:36:32.441Z,6.00
2023-03-26T21:38:59.553Z,6.10
2023-03-26T21:41:35.779Z,6.10
2023-03-26T21:44:03.655Z,6.10
2023-03-26T21:46:31.841Z,6.10
2023-03-26T21:48:59.012Z,6.10
2023-03-26T21:51:25.941Z,6.10
2023-03-26T21:53:53.123Z,6.10
2023-03-26T21:56:57.423Z,6.10
2023-03-26T21:59:55.307Z,6.20
2023-03-26T22:02:36.236Z,6.20
2023-03-26T22:05:18.278Z,6.20
2023-03-26T22:08:01.442Z,6.10
2023-03-26T22:10:29.341Z,6.10
2023-03-26T22:12:56.341Z,6.10
2023-03-26T22:15:25.791Z,6.10
2023-03-26T22:17:55.663Z,6.20
2023-03-26T22:20:24.975Z,6.20
2023-03-26T22:22:53.108Z,6.20
2023-03-26T22:25:21.796Z,6.20
2023-03-26T22:27:50.473Z,6.20
2023-03-26T22:30:18.759Z,6.20
2023-03-26T22:32:45.562Z,6.20
2023-03-26T22:35:13.008Z,6.10
2023-03-26T22:37:40.388Z,6.20
2023-03-26T22:40:13.611Z,6.20
2023-03-26T22:42:41.283Z,6.10
2023-03-26T22:45:11.771Z,6.10
2023-03-26T22:47:38.902Z,6.10
2023-03-26T22:50:07.436Z,6.00
2023-03-26T22:52:36.443Z,6.00
2023-03-26T22:55:05.225Z,5.90
2023-03-26T22:57:32.032Z,5.90
2023-03-26T23:00:07.626Z,5.90
2023-03-26T23:02:34.331Z,6.80
2023-03-26T23:05:01.219Z,5.90
2023-03-26T23:07:28.113Z,6.00
2023-03-26T23:09:54.830Z,5.90
2023-03-26T23:12:21.483Z,5.90
2023-03-26T23:14:52.230Z,5.90
2023-03-26T23:17:19.529Z,5.90
2023-03-26T23:19:46.724Z,6.00
2023-03-26T23:22:13.557Z,6.00
2023-03-26T23:24:40.319Z,6.00
2023-03-26T23:27:07.101Z,6.00
2023-03-26T23:29:34.287Z,6.00
2023-03-26T23:32:01.224Z,6.00
2023-03-26T23:34:27.912Z,5.90
2023-03-26T23:36:54.593Z,5.80
2023-03-26T23:39:21.333Z,5.70
2023-03-26T23:41:48.020Z,5.80
2023-03-26T23:44:16.932Z,5.80
2023-03-26T23:46:44.120Z,5.80
2023-03-26T23:49:12.017Z,5.90
2023-03-26T23:51:38.843Z,6.00
2023-03-26T23:54:05.541Z,6.00
2023-03-26T23:56:32.440Z,6.00
2023-03-26T23:59:00.493Z,6.00
